sensor_id;sensor_type;location;lat;lon;timestamp;temperature;humidity
44731;DHT22;30458;47.448;19.032;2022-11-20T00:07:30;4.80;99.90
44731;DHT22;30458;47.448;19.032;2022-11-20T00:17:36;4.60;99.90
44731;DHT22;30458;47.448;19.032;2022-11-20T00:27:39;4.40;99.90
44731;DHT22;30458;47.448;19.032;2022-11-20T00:37:42;4.40;99.90
44731;DHT22;30458;47.448;19.032;2022-11-20T00:47:43;4.30;99.90
44731;DHT22;30458;47.448;19.032;2022-11-20T00:57:43;4.40;99.90
44731;DHT22;30458;47.448;19.032;2022-11-20T01:07:46;4.60;99.90
44731;DHT22;30458;47.448;19.032;2022-11-20T01:17:47;4.60;99.90
44731;DHT22;30458;47.448;19.032;2022-11-20T01:27:48;4.60;99.90
44731;DHT22;30458;47.448;19.032;2022-11-20T01:37:52;4.60;99.90
44731;DHT22;30458;47.448;19.032;2022-11-20T01:47:55;4.60;99.90
44731;DHT22;30458;47.448;19.032;2022-11-20T01:57:56;4.40;99.90
44731;DHT22;30458;47.448;19.032;2022-11-20T02:08:00;4.40;99.90
44731;DHT22;30458;47.448;19.032;2022-11-20T02:18:01;4.30;99.90
44731;DHT22;30458;47.448;19.032;2022-11-20T02:28:02;4.40;99.90
44731;DHT22;30458;47.448;19.032;2022-11-20T02:38:05;4.40;99.90
44731;DHT22;30458;47.448;19.032;2022-11-20T02:48:06;4.50;99.90
44731;DHT22;30458;47.448;19.032;2022-11-20T02:58:08;4.70;99.90
44731;DHT22;30458;47.448;19.032;2022-11-20T03:08:13;4.60;99.90
44731;DHT22;30458;47.448;19.032;2022-11-20T03:18:16;4.80;99.90
44731;DHT22;30458;47.448;19.032;2022-11-20T03:28:17;4.70;99.90
44731;DHT22;30458;47.448;19.032;2022-11-20T03:38:20;4.60;99.90
44731;DHT22;30458;47.448;19.032;2022-11-20T03:48:21;4.80;99.90
44731;DHT22;30458;47.448;19.032;2022-11-20T03:58:24;5.00;99.90
44731;DHT22;30458;47.448;19.032;2022-11-20T04:08:25;5.20;99.90
44731;DHT22;30458;47.448;19.032;2022-11-20T04:18:25;5.10;99.90
44731;DHT22;30458;47.448;19.032;2022-11-20T04:28:26;5.10;99.90
44731;DHT22;30458;47.448;19.032;2022-11-20T04:38:27;4.90;99.90
44731;DHT22;30458;47.448;19.032;2022-11-20T04:48:34;4.90;99.90
44731;DHT22;30458;47.448;19.032;2022-11-20T04:58:37;5.00;99.90
44731;DHT22;30458;47.448;19.032;2022-11-20T05:08:42;4.90;99.90
44731;DHT22;30458;47.448;19.032;2022-11-20T05:18:42;4.90;99.90
44731;DHT22;30458;47.448;19.032;2022-11-20T05:28:43;5.00;99.90
44731;DHT22;30458;47.448;19.032;2022-11-20T05:38:46;4.90;99.90
44731;DHT22;30458;47.448;19.032;2022-11-20T05:48:49;5.00;99.90
44731;DHT22;30458;47.448;19.032;2022-11-20T05:58:53;5.10;99.90
44731;DHT22;30458;47.448;19.032;2022-11-20T06:08:56;5.20;99.90
44731;DHT22;30458;47.448;19.032;2022-11-20T06:18:59;5.40;99.90
44731;DHT22;30458;47.448;19.032;2022-11-20T06:28:59;5.30;99.90
44731;DHT22;30458;47.448;19.032;2022-11-20T06:39:01;5.30;99.90
44731;DHT22;30458;47.448;19.032;2022-11-20T06:49:01;5.50;99.90
44731;DHT22;30458;47.448;19.032;2022-11-20T06:59:06;5.60;99.90
44731;DHT22;30458;47.448;19.032;2022-11-20T07:09:09;5.70;99.90
44731;DHT22;30458;47.448;19.032;2022-11-20T07:19:12;5.90;99.90
44731;DHT22;30458;47.448;19.032;2022-11-20T07:29:17;6.00;99.90
44731;DHT22;30458;47.448;19.032;2022-11-20T07:39:24;5.80;99.90
44731;DHT22;30458;47.448;19.032;2022-11-20T07:49:25;5.80;99.90
44731;DHT22;30458;47.448;19.032;2022-11-20T07:59:30;5.90;99.90
44731;DHT22;30458;47.448;19.032;2022-11-20T08:09:31;6.10;99.90
44731;DHT22;30458;47.448;19.032;2022-11-20T08:19:33;6.30;99.90
44731;DHT22;30458;47.448;19.032;2022-11-20T08:29:33;6.50;99.90
44731;DHT22;30458;47.448;19.032;2022-11-20T08:39:34;6.50;99.90
44731;DHT22;30458;47.448;19.032;2022-11-20T08:49:35;6.60;99.90
44731;DHT22;30458;47.448;19.032;2022-11-20T08:59:38;6.80;99.90
44731;DHT22;30458;47.448;19.032;2022-11-20T09:09:39;6.80;99.90
44731;DHT22;30458;47.448;19.032;2022-11-20T09:19:42;7.00;99.90
44731;DHT22;30458;47.448;19.032;2022-11-20T09:29:43;7.10;99.90
44731;DHT22;30458;47.448;19.032;2022-11-20T09:39:46;7.20;99.90
44731;DHT22;30458;47.448;19.032;2022-11-20T10:00:38;7.10;99.90
44731;DHT22;30458;47.448;19.032;2022-11-20T10:10:44;7.10;99.90
44731;DHT22;30458;47.448;19.032;2022-11-20T10:20:58;7.10;99.90
44731;DHT22;30458;47.448;19.032;2022-11-20T10:31:17;7.40;99.90
44731;DHT22;30458;47.448;19.032;2022-11-20T10:41:27;7.90;99.90
44731;DHT22;30458;47.448;19.032;2022-11-20T11:01:53;8.30;99.90
44731;DHT22;30458;47.448;19.032;2022-11-20T11:11:56;8.50;99.90
44731;DHT22;30458;47.448;19.032;2022-11-20T11:21:59;8.40;99.90
44731;DHT22;30458;47.448;19.032;2022-11-20T11:32:19;8.20;99.90
44731;DHT22;30458;47.448;19.032;2022-11-20T11:42:23;8.20;99.90
44731;DHT22;30458;47.448;19.032;2022-11-20T11:52:27;8.40;99.90
44731;DHT22;30458;47.448;19.032;2022-11-20T12:23:59;8.80;99.90
44731;DHT22;30458;47.448;19.032;2022-11-20T12:34:12;8.90;99.90
44731;DHT22;30458;47.448;19.032;2022-11-20T12:55:31;8.50;99.90
44731;DHT22;30458;47.448;19.032;2022-11-20T13:05:46;8.50;99.90
44731;DHT22;30458;47.448;19.032;2022-11-20T13:16:04;8.60;99.90
44731;DHT22;30458;47.448;19.032;2022-11-20T13:26:19;8.80;99.90
44731;DHT22;30458;47.448;19.032;2022-11-20T13:36:27;8.70;99.90
44731;DHT22;30458;47.448;19.032;2022-11-20T13:46:56;8.60;99.90
44731;DHT22;30458;47.448;19.032;2022-11-20T13:57:29;8.60;99.90
44731;DHT22;30458;47.448;19.032;2022-11-20T14:07:43;8.50;99.90
44731;DHT22;30458;47.448;19.032;2022-11-20T14:17:43;8.50;99.90
44731;DHT22;30458;47.448;19.032;2022-11-20T14:27:54;8.40;99.90
44731;DHT22;30458;47.448;19.032;2022-11-20T14:37:58;8.40;99.90
44731;DHT22;30458;47.448;19.032;2022-11-20T14:47:59;8.40;99.90
44731;DHT22;30458;47.448;19.032;2022-11-20T15:08:09;8.40;99.90
44731;DHT22;30458;47.448;19.032;2022-11-20T15:18:13;8.30;99.90
44731;DHT22;30458;47.448;19.032;2022-11-20T15:28:20;8.20;99.90
44731;DHT22;30458;47.448;19.032;2022-11-20T15:38:21;8.20;99.90
44731;DHT22;30458;47.448;19.032;2022-11-20T15:48:54;8.00;99.90
44731;DHT22;30458;47.448;19.032;2022-11-20T15:58:55;7.90;99.90
44731;DHT22;30458;47.448;19.032;2022-11-20T16:08:58;7.70;99.90
44731;DHT22;30458;47.448;19.032;2022-11-20T16:18:59;7.60;99.90
44731;DHT22;30458;47.448;19.032;2022-11-20T16:29:04;7.50;99.90
44731;DHT22;30458;47.448;19.032;2022-11-20T16:39:10;7.40;99.90
44731;DHT22;30458;47.448;19.032;2022-11-20T16:49:14;7.30;99.90
44731;DHT22;30458;47.448;19.032;2022-11-20T16:59:14;7.20;99.90
44731;DHT22;30458;47.448;19.032;2022-11-20T17:09:17;7.20;99.90
44731;DHT22;30458;47.448;19.032;2022-11-20T17:19:21;6.90;99.90
44731;DHT22;30458;47.448;19.032;2022-11-20T17:29:22;6.90;99.90
44731;DHT22;30458;47.448;19.032;2022-11-20T17:39:26;6.80;99.90
44731;DHT22;30458;47.448;19.032;2022-11-20T17:49:28;6.50;99.90
44731;DHT22;30458;47.448;19.032;2022-11-20T17:59:29;6.20;99.90
44731;DHT22;30458;47.448;19.032;2022-11-20T18:09:30;6.20;99.90
44731;DHT22;30458;47.448;19.032;2022-11-20T18:19:42;6.20;99.90
44731;DHT22;30458;47.448;19.032;2022-11-20T18:29:44;6.20;99.90
44731;DHT22;30458;47.448;19.032;2022-11-20T18:39:48;5.60;99.90
44731;DHT22;30458;47.448;19.032;2022-11-20T18:49:53;5.40;99.90
44731;DHT22;30458;47.448;19.032;2022-11-20T18:59:55;5.70;99.90
44731;DHT22;30458;47.448;19.032;2022-11-20T19:09:58;5.70;99.90
44731;DHT22;30458;47.448;19.032;2022-11-20T19:19:59;5.70;99.90
44731;DHT22;30458;47.448;19.032;2022-11-20T19:30:03;5.60;99.90
44731;DHT22;30458;47.448;19.032;2022-11-20T19:40:04;5.50;99.90
44731;DHT22;30458;47.448;19.032;2022-11-20T19:50:07;5.00;99.90
44731;DHT22;30458;47.448;19.032;2022-11-20T20:00:09;4.90;99.90
44731;DHT22;30458;47.448;19.032;2022-11-20T20:10:16;5.20;99.90
44731;DHT22;30458;47.448;19.032;2022-11-20T20:20:20;5.10;99.90
44731;DHT22;30458;47.448;19.032;2022-11-20T20:30:21;5.00;99.90
44731;DHT22;30458;47.448;19.032;2022-11-20T20:40:22;4.90;99.90
44731;DHT22;30458;47.448;19.032;2022-11-20T20:50:22;5.00;99.90
44731;DHT22;30458;47.448;19.032;2022-11-20T21:00:23;5.00;99.90
44731;DHT22;30458;47.448;19.032;2022-11-20T21:10:24;5.00;99.90
44731;DHT22;30458;47.448;19.032;2022-11-20T21:20:24;5.00;99.90
44731;DHT22;30458;47.448;19.032;2022-11-20T21:30:46;5.10;99.90
44731;DHT22;30458;47.448;19.032;2022-11-20T21:40:49;5.10;99.90
44731;DHT22;30458;47.448;19.032;2022-11-20T21:50:50;5.10;99.90
44731;DHT22;30458;47.448;19.032;2022-11-20T22:00:51;5.10;99.90
44731;DHT22;30458;47.448;19.032;2022-11-20T22:10:56;4.80;99.90
44731;DHT22;30458;47.448;19.032;2022-11-20T22:21:06;4.90;99.90
44731;DHT22;30458;47.448;19.032;2022-11-20T22:31:09;5.00;99.90
44731;DHT22;30458;47.448;19.032;2022-11-20T22:41:16;4.90;99.90
44731;DHT22;30458;47.448;19.032;2022-11-20T22:51:44;5.00;99.90
44731;DHT22;30458;47.448;19.032;2022-11-20T23:01:44;5.00;99.90
44731;DHT22;30458;47.448;19.032;2022-11-20T23:11:45;5.00;99.90
44731;DHT22;30458;47.448;19.032;2022-11-20T23:21:51;4.90;99.90
44731;DHT22;30458;47.448;19.032;2022-11-20T23:31:54;4.80;99.90
44731;DHT22;30458;47.448;19.032;2022-11-20T23:41:57;4.80;99.90
44731;DHT22;30458;47.448;19.032;2022-11-20T23:51:57;4.80;99.90
